Buoy 51788

sailwx.info

Track history (hours):
 
Tides and Currents Weather Stations Pressure Air Temp Water Temp Dewpoint Dewpoint Depression Visibility Wind Speed Wind Dir Waves Ship Positions

Drifting buoy 51788

Last reported at 2017-Dec-11 12:00 UTC. Time now 2017-Dec-14 13:16 UTC.
Position N 32°01' E 141°24'.

Water temperature 21.5 ° C

Date/timePositionNaut miles runAvg speedWind from/ knotsBaromVisibWave heightAir tempDewpointWater temp
2017-Dec-11 12:00N 32°01' E 141°24'0 0.0 21.5
2017-Dec-11 11:00N 32°01' E 141°24'1 0.6 21.5
2017-Dec-11 10:00N 32°02' E 141°24'1 0.6 21.5
2017-Dec-11 09:00N 32°01' E 141°24'0 0.0 21.6
2017-Dec-11 08:00N 32°01' E 141°24'1 0.6 21.6
2017-Dec-11 07:00N 32°01' E 141°24'0 0.0 21.6
2017-Dec-11 06:00N 32°01' E 141°24'1 0.6 21.6
2017-Dec-11 05:00N 32°00' E 141°24'2 1.9 21.6
2017-Dec-11 04:00N 31°59' E 141°26'2 1.9 21.5
2017-Dec-11 03:00N 32°00' E 141°24'3 1.2 21.5
2017-Dec-11 00:00N 31°58' E 141°27'0 0.0 21.4
2017-Dec-10 23:00N 31°58' E 141°27'1 0.6 21.4
2017-Dec-10 21:00N 31°57' E 141°28'1 0.3 21.4
2017-Dec-10 19:00N 31°56' E 141°28'2 1.6 21.4
2017-Dec-10 18:00N 31°55' E 141°27'4 4.3 21.4
2017-Dec-10 17:00N 31°52' E 141°23'0 0.0 21.4
2017-Dec-10 16:00N 31°52' E 141°23'0 0.0 21.4
2017-Dec-10 12:00N 31°52' E 141°23'1 1.3 21.4
2017-Dec-10 11:00N 31°51' E 141°23'1 1.2 21.4
2017-Dec-10 10:00N 31°52' E 141°22'1 1.3 21.4
2017-Dec-10 09:00N 31°50' E 141°22'1 1.3 21.4
2017-Dec-10 08:00N 31°49' E 141°22'2 1.6 21.3
2017-Dec-10 07:00N 31°48' E 141°20'1 0.5 21.4
2017-Dec-10 06:00N 31°48' E 141°21'2 1.8 21.4
2017-Dec-10 05:00N 31°46' E 141°21'1 1.2 21.4
2017-Dec-10 04:00N 31°46' E 141°20'2 1.9 21.4
2017-Dec-10 03:00N 31°44' E 141°22'2 0.5 21.4
2017-Dec-10 00:00N 31°43' E 141°23'1 0.6 21.3
2017-Dec-09 23:00N 31°43' E 141°23'1 0.5 21.3
2017-Dec-09 22:00N 31°43' E 141°23'1 1.2 21.4
2017-Dec-09 21:00N 31°42' E 141°25'1 1.0 21.3
2017-Dec-09 20:00N 31°42' E 141°23'1 0.3 21.3
2017-Dec-09 18:00N 31°42' E 141°23'0 0.0 21.4
2017-Dec-09 17:00N 31°42' E 141°23'0 0.0 21.3
2017-Dec-09 16:00N 31°42' E 141°23'3 0.7 21.4
2017-Dec-09 12:00N 31°40' E 141°20'1 0.6 21.4
2017-Dec-09 11:00N 31°40' E 141°20'1 1.2 21.4
2017-Dec-09 10:00N 31°38' E 141°20'1 0.5 21.4
2017-Dec-09 09:00N 31°38' E 141°21'1 1.2 21.4
2017-Dec-09 08:00N 31°38' E 141°22'1 1.2 21.4
2017-Dec-09 07:00N 31°37' E 141°22'1 0.5 21.4
2017-Dec-09 06:00N 31°37' E 141°22'2 1.9 21.4
2017-Dec-09 05:00N 31°35' E 141°23'0 0.0 21.4
2017-Dec-09 04:00N 31°35' E 141°23'4 1.4 21.4
2017-Dec-09 01:00N 31°35' E 141°28'1 0.4 21.4
2017-Dec-08 23:00N 31°36' E 141°29'1 0.8 21.4
2017-Dec-08 22:00N 31°37' E 141°29'1 0.7 21.4
2017-Dec-08 20:00N 31°38' E 141°30'0 0.0 21.4
2017-Dec-08 19:00N 31°38' E 141°30'1 0.8 21.4
2017-Dec-08 18:00N 31°38' E 141°29'0 0.0 21.4
2017-Dec-08 17:00N 31°38' E 141°29'0 0.0 21.5
2017-Dec-08 16:00N 31°38' E 141°29'3 0.8 21.5
2017-Dec-08 12:00N 31°38' E 141°26'0 0.0 21.4
2017-Dec-08 11:00N 31°38' E 141°26'1 0.5 21.4
2017-Dec-08 10:00N 31°38' E 141°26'0 0.0 21.4
2017-Dec-08 09:00N 31°38' E 141°26'2 1.2 21.4
2017-Dec-08 07:00N 31°37' E 141°29'1 0.6 21.6
2017-Dec-08 06:00N 31°38' E 141°29'2 1.6 21.6
2017-Dec-08 05:00N 31°37' E 141°31'0 0.0 21.6
2017-Dec-08 04:00N 31°37' E 141°31'2 0.7 21.6
2017-Dec-08 01:00N 31°37' E 141°33'1 0.3 21.6
2017-Dec-07 23:00N 31°37' E 141°34'0 0.0 21.6
2017-Dec-07 22:00N 31°37' E 141°34'1 0.8 21.6
2017-Dec-07 21:00N 31°37' E 141°33'1 0.6 21.6
2017-Dec-07 20:00N 31°37' E 141°33'1 0.5 21.6
2017-Dec-07 19:00N 31°37' E 141°34'0 0.0 21.6
2017-Dec-07 18:00N 31°37' E 141°34'1 0.5 21.6
2017-Dec-07 17:00N 31°37' E 141°34'3 0.7 21.6
2017-Dec-07 13:00N 31°35' E 141°32'0 0.0 21.6
2017-Dec-07 12:00N 31°35' E 141°32'1 0.6 21.6
2017-Dec-07 11:00N 31°34' E 141°32'1 0.6 21.6
2017-Dec-07 10:00N 31°34' E 141°32'1 1.0 21.5
2017-Dec-07 09:00N 31°34' E 141°33'1 0.8 21.5
2017-Dec-07 08:00N 31°33' E 141°34'0 0.0 21.5
2017-Dec-07 07:00N 31°33' E 141°34'2 1.5 21.5
2017-Dec-07 06:00N 31°33' E 141°35'1 0.6 21.5
2017-Dec-07 05:00N 31°34' E 141°35'0 0.0 21.6
2017-Dec-07 04:00N 31°34' E 141°35'2 0.7 21.6
2017-Dec-07 01:00N 31°35' E 141°37'1 0.6 21.5
2017-Dec-07 00:00N 31°36' E 141°37'2 1.6 21.5
2017-Dec-06 23:00N 31°37' E 141°38'1 0.8 21.5
2017-Dec-06 22:00N 31°37' E 141°37'1 0.8 21.5
2017-Dec-06 21:00N 31°37' E 141°38'1 0.4 21.5
2017-Dec-06 19:00N 31°38' E 141°38'1 0.6 21.5
2017-Dec-06 18:00N 31°38' E 141°38'0 0.0 21.6
2017-Dec-06 17:00N 31°38' E 141°38'2 0.4 21.6
2017-Dec-06 12:00N 31°40' E 141°40'0 0.0 21.6
2017-Dec-06 11:00N 31°40' E 141°40'1 1.2 21.6
2017-Dec-06 10:00N 31°41' E 141°41'0 0.0 21.6
2017-Dec-06 09:00N 31°41' E 141°41'1 1.2 21.6
2017-Dec-06 08:00N 31°41' E 141°42'1 0.8 21.6
2017-Dec-06 07:00N 31°42' E 141°43'0 0.0 21.7
2017-Dec-06 06:00N 31°42' E 141°43'1 0.5 21.7
2017-Dec-06 05:00N 31°42' E 141°42'0 0.0 21.7
2017-Dec-06 04:00N 31°42' E 141°42'3 0.8 21.7
2017-Dec-06 00:00N 31°45' E 141°42'1 0.6 21.8
2017-Dec-05 23:00N 31°46' E 141°42'1 0.6 21.9
2017-Dec-05 22:00N 31°46' E 141°42'1 0.6 21.9
2017-Dec-05 21:00N 31°47' E 141°42'1 0.8 21.8
2017-Dec-05 20:00N 31°47' E 141°41'1 1.2 21.9
2017-Dec-05 19:00N 31°49' E 141°41'1 0.5 21.9
2017-Dec-05 18:00N 31°49' E 141°41'0 0.0 21.9
2017-Dec-05 17:00N 31°49' E 141°41'4 1.1 21.9
2017-Dec-05 13:00N 31°50' E 141°36'0 0.0 21.9
2017-Dec-05 12:00N 31°50' E 141°36'2 1.5 22.0
2017-Dec-05 11:00N 31°50' E 141°34'0 0.0 22.0
2017-Dec-05 10:00N 31°50' E 141°34'1 1.2 22.0
2017-Dec-05 09:00N 31°50' E 141°33'1 0.6 22.0
2017-Dec-05 08:00N 31°50' E 141°33'2 1.6 22.0
2017-Dec-05 07:00N 31°51' E 141°32'0 0.0 22.0
2017-Dec-05 06:00N 31°51' E 141°32'0 0.0 22.0
2017-Dec-05 05:00N 31°51' E 141°32'0 0.0 22.0
2017-Dec-05 04:00N 31°51' E 141°32'3 0.9 22.0
2017-Dec-05 01:00N 31°52' E 141°29'0 0.0 22.0
2017-Dec-05 00:00N 31°52' E 141°29'1 1.2 22.0
2017-Dec-04 23:00N 31°51' E 141°28'1 0.5 22.0
2017-Dec-04 22:00N 31°51' E 141°27'1 1.0 22.0
2017-Dec-04 21:00N 31°51' E 141°26'0 0.0 22.1
2017-Dec-04 20:00N 31°51' E 141°26'2 1.5 22.1
2017-Dec-04 19:00N 31°51' E 141°24'0 0.0 22.1
2017-Dec-04 18:00N 31°51' E 141°24'0 0.0 22.0
2017-Dec-04 17:00N 31°51' E 141°24'2 0.4 21.9
2017-Dec-04 12:00N 31°51' E 141°22'1 0.8 22.1
2017-Dec-04 11:00N 31°50' E 141°21'1 1.0 22.1
2017-Dec-04 10:00N 31°50' E 141°20'0 0.0 22.1
2017-Dec-04 09:00N 31°50' E 141°20'0 0.0 22.1
2017-Dec-04 08:00N 31°50' E 141°20'0 0.0 22.0
2017-Dec-04 07:00N 31°50' E 141°20'0 0.0 22.1
2017-Dec-04 05:00N 31°50' E 141°20'2 0.6 22.1
2017-Dec-04 01:00N 31°49' E 141°18'0 0.0 22.1
2017-Dec-04 00:00N 31°49' E 141°18'2 1.5 22.1
2017-Dec-03 23:00N 31°49' E 141°16'0 0.0 22.1
2017-Dec-03 22:00N 31°49' E 141°16'1 0.5 22.1
2017-Dec-03 21:00N 31°49' E 141°16'1 0.6 22.1
2017-Dec-03 19:00N 31°49' E 141°14'0 0.0 22.1
2017-Dec-03 18:00N 31°49' E 141°14'0 0.0 22.1
2017-Dec-03 17:00N 31°49' E 141°14'1 0.2 22.1
2017-Dec-03 12:00N 31°50' E 141°14'1 0.8 22.0
2017-Dec-03 11:00N 31°49' E 141°13'1 0.5 22.1
2017-Dec-03 10:00N 31°49' E 141°13'1 1.2 22.0
2017-Dec-03 09:00N 31°49' E 141°11'0 0.0 22.1
2017-Dec-03 08:00N 31°49' E 141°11'1 0.5 22.0
2017-Dec-03 07:00N 31°49' E 141°11'0 0.0 22.0
2017-Dec-03 06:00N 31°49' E 141°11'1 0.8 22.1
2017-Dec-03 05:00N 31°48' E 141°11'1 0.8 22.1
2017-Dec-03 04:00N 31°47' E 141°11'1 0.4 22.0
2017-Dec-03 01:00N 31°46' E 141°10'0 0.0 22.0
2017-Dec-03 00:00N 31°46' E 141°10'1 0.5 22.0
2017-Dec-02 23:00N 31°46' E 141°10'0 0.0 22.0
2017-Dec-02 22:00N 31°46' E 141°10'0 0.0 22.0
2017-Dec-02 21:00N 31°46' E 141°10'1 1.3 22.1
2017-Dec-02 20:00N 31°45' E 141°10'0 0.0 22.1
2017-Dec-02 18:00N 31°45' E 141°10'3 0.5 22.1
2017-Dec-02 12:00N 31°43' E 141°07'1 0.6 22.1
2017-Dec-02 11:00N 31°43' E 141°07'0 0.0 22.1
2017-Dec-02 10:00N 31°43' E 141°07'1 0.8 22.1
2017-Dec-02 09:00N 31°42' E 141°07'1 0.5 22.1
2017-Dec-02 08:00N 31°42' E 141°07'1 1.2 22.1
2017-Dec-02 07:00N 31°41' E 141°07'1 0.5 22.1
2017-Dec-02 06:00N 31°41' E 141°07'1 1.3 22.1
2017-Dec-02 05:00N 31°40' E 141°07'1 1.2 22.1
2017-Dec-02 04:00N 31°39' E 141°08'0 0.0 22.0
2017-Dec-02 01:00N 31°39' E 141°08'1 0.5 22.2
2017-Dec-02 00:00N 31°39' E 141°09'0 0.0 22.2
2017-Dec-01 23:00N 31°39' E 141°09'1 0.6 22.3
2017-Dec-01 22:00N 31°38' E 141°09'1 0.4 22.3
2017-Dec-01 20:00N 31°38' E 141°10'1 0.5 22.3
2017-Dec-01 19:00N 31°38' E 141°09'0 0.0 22.4
2017-Dec-01 18:00N 31°38' E 141°09'1 1.3 22.4
2017-Dec-01 17:00N 31°37' E 141°10'1 0.1 22.4
2017-Dec-01 12:00N 31°37' E 141°10'   22.5
Track history (hours):
 
Tides and Currents Weather Stations Pressure Air Temp Water Temp Dewpoint Dewpoint Depression Visibility Wind Speed Wind Dir Waves Ship Positions

Drifting buoy 51788

Last reported at 2017-Dec-11 12:00 UTC. Time now 2017-Dec-14 13:16 UTC.
Position N 32°01' E 141°24'.

Water temperature 21.5 ° C

Date/timePositionNaut miles runAvg speedWind from/ knotsBaromVisibWave heightAir tempDewpointWater temp
2017-Dec-11 12:00N 32°01' E 141°24'0 0.0 21.5
2017-Dec-11 11:00N 32°01' E 141°24'1 0.6 21.5
2017-Dec-11 10:00N 32°02' E 141°24'1 0.6 21.5
2017-Dec-11 09:00N 32°01' E 141°24'0 0.0 21.6
2017-Dec-11 08:00N 32°01' E 141°24'1 0.6 21.6
2017-Dec-11 07:00N 32°01' E 141°24'0 0.0 21.6
2017-Dec-11 06:00N 32°01' E 141°24'1 0.6 21.6
2017-Dec-11 05:00N 32°00' E 141°24'2 1.9 21.6
2017-Dec-11 04:00N 31°59' E 141°26'2 1.9 21.5
2017-Dec-11 03:00N 32°00' E 141°24'3 1.2 21.5
2017-Dec-11 00:00N 31°58' E 141°27'0 0.0 21.4
2017-Dec-10 23:00N 31°58' E 141°27'1 0.6 21.4
2017-Dec-10 21:00N 31°57' E 141°28'1 0.3 21.4
2017-Dec-10 19:00N 31°56' E 141°28'2 1.6 21.4
2017-Dec-10 18:00N 31°55' E 141°27'4 4.3 21.4
2017-Dec-10 17:00N 31°52' E 141°23'0 0.0 21.4
2017-Dec-10 16:00N 31°52' E 141°23'0 0.0 21.4
2017-Dec-10 12:00N 31°52' E 141°23'1 1.3 21.4
2017-Dec-10 11:00N 31°51' E 141°23'1 1.2 21.4
2017-Dec-10 10:00N 31°52' E 141°22'1 1.3 21.4
2017-Dec-10 09:00N 31°50' E 141°22'1 1.3 21.4
2017-Dec-10 08:00N 31°49' E 141°22'2 1.6 21.3
2017-Dec-10 07:00N 31°48' E 141°20'1 0.5 21.4
2017-Dec-10 06:00N 31°48' E 141°21'2 1.8 21.4
2017-Dec-10 05:00N 31°46' E 141°21'1 1.2 21.4
2017-Dec-10 04:00N 31°46' E 141°20'2 1.9 21.4
2017-Dec-10 03:00N 31°44' E 141°22'2 0.5 21.4
2017-Dec-10 00:00N 31°43' E 141°23'1 0.6 21.3
2017-Dec-09 23:00N 31°43' E 141°23'1 0.5 21.3
2017-Dec-09 22:00N 31°43' E 141°23'1 1.2 21.4
2017-Dec-09 21:00N 31°42' E 141°25'1 1.0 21.3
2017-Dec-09 20:00N 31°42' E 141°23'1 0.3 21.3
2017-Dec-09 18:00N 31°42' E 141°23'0 0.0 21.4
2017-Dec-09 17:00N 31°42' E 141°23'0 0.0 21.3
2017-Dec-09 16:00N 31°42' E 141°23'3 0.7 21.4
2017-Dec-09 12:00N 31°40' E 141°20'1 0.6 21.4
2017-Dec-09 11:00N 31°40' E 141°20'1 1.2 21.4
2017-Dec-09 10:00N 31°38' E 141°20'1 0.5 21.4
2017-Dec-09 09:00N 31°38' E 141°21'1 1.2 21.4
2017-Dec-09 08:00N 31°38' E 141°22'1 1.2 21.4
2017-Dec-09 07:00N 31°37' E 141°22'1 0.5 21.4
2017-Dec-09 06:00N 31°37' E 141°22'2 1.9 21.4
2017-Dec-09 05:00N 31°35' E 141°23'0 0.0 21.4
2017-Dec-09 04:00N 31°35' E 141°23'4 1.4 21.4
2017-Dec-09 01:00N 31°35' E 141°28'1 0.4 21.4
2017-Dec-08 23:00N 31°36' E 141°29'1 0.8 21.4
2017-Dec-08 22:00N 31°37' E 141°29'1 0.7 21.4
2017-Dec-08 20:00N 31°38' E 141°30'0 0.0 21.4
2017-Dec-08 19:00N 31°38' E 141°30'1 0.8 21.4
2017-Dec-08 18:00N 31°38' E 141°29'0 0.0 21.4
2017-Dec-08 17:00N 31°38' E 141°29'0 0.0 21.5
2017-Dec-08 16:00N 31°38' E 141°29'3 0.8 21.5
2017-Dec-08 12:00N 31°38' E 141°26'0 0.0 21.4
2017-Dec-08 11:00N 31°38' E 141°26'1 0.5 21.4
2017-Dec-08 10:00N 31°38' E 141°26'0 0.0 21.4
2017-Dec-08 09:00N 31°38' E 141°26'2 1.2 21.4
2017-Dec-08 07:00N 31°37' E 141°29'1 0.6 21.6
2017-Dec-08 06:00N 31°38' E 141°29'2 1.6 21.6
2017-Dec-08 05:00N 31°37' E 141°31'0 0.0 21.6
2017-Dec-08 04:00N 31°37' E 141°31'2 0.7 21.6
2017-Dec-08 01:00N 31°37' E 141°33'1 0.3 21.6
2017-Dec-07 23:00N 31°37' E 141°34'0 0.0 21.6
2017-Dec-07 22:00N 31°37' E 141°34'1 0.8 21.6
2017-Dec-07 21:00N 31°37' E 141°33'1 0.6 21.6
2017-Dec-07 20:00N 31°37' E 141°33'1 0.5 21.6
2017-Dec-07 19:00N 31°37' E 141°34'0 0.0 21.6
2017-Dec-07 18:00N 31°37' E 141°34'1 0.5 21.6
2017-Dec-07 17:00N 31°37' E 141°34'3 0.7 21.6
2017-Dec-07 13:00N 31°35' E 141°32'0 0.0 21.6
2017-Dec-07 12:00N 31°35' E 141°32'1 0.6 21.6
2017-Dec-07 11:00N 31°34' E 141°32'1 0.6 21.6
2017-Dec-07 10:00N 31°34' E 141°32'1 1.0 21.5
2017-Dec-07 09:00N 31°34' E 141°33'1 0.8 21.5
2017-Dec-07 08:00N 31°33' E 141°34'0 0.0 21.5
2017-Dec-07 07:00N 31°33' E 141°34'2 1.5 21.5
2017-Dec-07 06:00N 31°33' E 141°35'1 0.6 21.5
2017-Dec-07 05:00N 31°34' E 141°35'0 0.0 21.6
2017-Dec-07 04:00N 31°34' E 141°35'2 0.7 21.6
2017-Dec-07 01:00N 31°35' E 141°37'1 0.6 21.5
2017-Dec-07 00:00N 31°36' E 141°37'2 1.6 21.5
2017-Dec-06 23:00N 31°37' E 141°38'1 0.8 21.5
2017-Dec-06 22:00N 31°37' E 141°37'1 0.8 21.5
2017-Dec-06 21:00N 31°37' E 141°38'1 0.4 21.5
2017-Dec-06 19:00N 31°38' E 141°38'1 0.6 21.5
2017-Dec-06 18:00N 31°38' E 141°38'0 0.0 21.6
2017-Dec-06 17:00N 31°38' E 141°38'2 0.4 21.6
2017-Dec-06 12:00N 31°40' E 141°40'0 0.0 21.6
2017-Dec-06 11:00N 31°40' E 141°40'1 1.2 21.6
2017-Dec-06 10:00N 31°41' E 141°41'0 0.0 21.6
2017-Dec-06 09:00N 31°41' E 141°41'1 1.2 21.6
2017-Dec-06 08:00N 31°41' E 141°42'1 0.8 21.6
2017-Dec-06 07:00N 31°42' E 141°43'0 0.0 21.7
2017-Dec-06 06:00N 31°42' E 141°43'1 0.5 21.7
2017-Dec-06 05:00N 31°42' E 141°42'0 0.0 21.7
2017-Dec-06 04:00N 31°42' E 141°42'3 0.8 21.7
2017-Dec-06 00:00N 31°45' E 141°42'1 0.6 21.8
2017-Dec-05 23:00N 31°46' E 141°42'1 0.6 21.9
2017-Dec-05 22:00N 31°46' E 141°42'1 0.6 21.9
2017-Dec-05 21:00N 31°47' E 141°42'1 0.8 21.8
2017-Dec-05 20:00N 31°47' E 141°41'1 1.2 21.9
2017-Dec-05 19:00N 31°49' E 141°41'1 0.5 21.9
2017-Dec-05 18:00N 31°49' E 141°41'0 0.0 21.9
2017-Dec-05 17:00N 31°49' E 141°41'4 1.1 21.9
2017-Dec-05 13:00N 31°50' E 141°36'0 0.0 21.9
2017-Dec-05 12:00N 31°50' E 141°36'2 1.5 22.0
2017-Dec-05 11:00N 31°50' E 141°34'0 0.0 22.0
2017-Dec-05 10:00N 31°50' E 141°34'1 1.2 22.0
2017-Dec-05 09:00N 31°50' E 141°33'1 0.6 22.0
2017-Dec-05 08:00N 31°50' E 141°33'2 1.6 22.0
2017-Dec-05 07:00N 31°51' E 141°32'0 0.0 22.0
2017-Dec-05 06:00N 31°51' E 141°32'0 0.0 22.0
2017-Dec-05 05:00N 31°51' E 141°32'0 0.0 22.0
2017-Dec-05 04:00N 31°51' E 141°32'3 0.9 22.0
2017-Dec-05 01:00N 31°52' E 141°29'0 0.0 22.0
2017-Dec-05 00:00N 31°52' E 141°29'1 1.2 22.0
2017-Dec-04 23:00N 31°51' E 141°28'1 0.5 22.0
2017-Dec-04 22:00N 31°51' E 141°27'1 1.0 22.0
2017-Dec-04 21:00N 31°51' E 141°26'0 0.0 22.1
2017-Dec-04 20:00N 31°51' E 141°26'2 1.5 22.1
2017-Dec-04 19:00N 31°51' E 141°24'0 0.0 22.1
2017-Dec-04 18:00N 31°51' E 141°24'0 0.0 22.0
2017-Dec-04 17:00N 31°51' E 141°24'2 0.4 21.9
2017-Dec-04 12:00N 31°51' E 141°22'1 0.8 22.1
2017-Dec-04 11:00N 31°50' E 141°21'1 1.0 22.1
2017-Dec-04 10:00N 31°50' E 141°20'0 0.0 22.1
2017-Dec-04 09:00N 31°50' E 141°20'0 0.0 22.1
2017-Dec-04 08:00N 31°50' E 141°20'0 0.0 22.0
2017-Dec-04 07:00N 31°50' E 141°20'0 0.0 22.1
2017-Dec-04 05:00N 31°50' E 141°20'2 0.6 22.1
2017-Dec-04 01:00N 31°49' E 141°18'0 0.0 22.1
2017-Dec-04 00:00N 31°49' E 141°18'2 1.5 22.1
2017-Dec-03 23:00N 31°49' E 141°16'0 0.0 22.1
2017-Dec-03 22:00N 31°49' E 141°16'1 0.5 22.1
2017-Dec-03 21:00N 31°49' E 141°16'1 0.6 22.1
2017-Dec-03 19:00N 31°49' E 141°14'0 0.0 22.1
2017-Dec-03 18:00N 31°49' E 141°14'0 0.0 22.1
2017-Dec-03 17:00N 31°49' E 141°14'1 0.2 22.1
2017-Dec-03 12:00N 31°50' E 141°14'1 0.8 22.0
2017-Dec-03 11:00N 31°49' E 141°13'1 0.5 22.1
2017-Dec-03 10:00N 31°49' E 141°13'1 1.2 22.0
2017-Dec-03 09:00N 31°49' E 141°11'0 0.0 22.1
2017-Dec-03 08:00N 31°49' E 141°11'1 0.5 22.0
2017-Dec-03 07:00N 31°49' E 141°11'0 0.0 22.0
2017-Dec-03 06:00N 31°49' E 141°11'1 0.8 22.1
2017-Dec-03 05:00N 31°48' E 141°11'1 0.8 22.1
2017-Dec-03 04:00N 31°47' E 141°11'1 0.4 22.0
2017-Dec-03 01:00N 31°46' E 141°10'0 0.0 22.0
2017-Dec-03 00:00N 31°46' E 141°10'1 0.5 22.0
2017-Dec-02 23:00N 31°46' E 141°10'0 0.0 22.0
2017-Dec-02 22:00N 31°46' E 141°10'0 0.0 22.0
2017-Dec-02 21:00N 31°46' E 141°10'1 1.3 22.1
2017-Dec-02 20:00N 31°45' E 141°10'0 0.0 22.1
2017-Dec-02 18:00N 31°45' E 141°10'3 0.5 22.1
2017-Dec-02 12:00N 31°43' E 141°07'1 0.6 22.1
2017-Dec-02 11:00N 31°43' E 141°07'0 0.0 22.1
2017-Dec-02 10:00N 31°43' E 141°07'1 0.8 22.1
2017-Dec-02 09:00N 31°42' E 141°07'1 0.5 22.1
2017-Dec-02 08:00N 31°42' E 141°07'1 1.2 22.1
2017-Dec-02 07:00N 31°41' E 141°07'1 0.5 22.1
2017-Dec-02 06:00N 31°41' E 141°07'1 1.3 22.1
2017-Dec-02 05:00N 31°40' E 141°07'1 1.2 22.1
2017-Dec-02 04:00N 31°39' E 141°08'0 0.0 22.0
2017-Dec-02 01:00N 31°39' E 141°08'1 0.5 22.2
2017-Dec-02 00:00N 31°39' E 141°09'0 0.0 22.2
2017-Dec-01 23:00N 31°39' E 141°09'1 0.6 22.3
2017-Dec-01 22:00N 31°38' E 141°09'1 0.4 22.3
2017-Dec-01 20:00N 31°38' E 141°10'1 0.5 22.3
2017-Dec-01 19:00N 31°38' E 141°09'0 0.0 22.4
2017-Dec-01 18:00N 31°38' E 141°09'1 1.3 22.4
2017-Dec-01 17:00N 31°37' E 141°10'1 0.1 22.4
2017-Dec-01 12:00N 31°37' E 141°10'   22.5

Dump ship's entire track history